sensor_id;sensor_type;location;lat;lon;timestamp;pressure;altitude;pressure_sealevel;temperature;humidity
30935;BME280;51033;42.648;23.292;2022-09-28T00:01:13;92865.81;;;14.60;59.75
30935;BME280;51033;42.648;23.292;2022-09-28T00:03:39;92833.47;;;14.46;59.14
30935;BME280;51033;42.648;23.292;2022-09-28T00:06:07;92822.00;;;14.46;59.05
30935;BME280;51033;42.648;23.292;2022-09-28T00:08:36;92872.16;;;14.79;58.91
30935;BME280;51033;42.648;23.292;2022-09-28T00:11:03;92885.28;;;14.87;58.86
30935;BME280;51033;42.648;23.292;2022-09-28T00:13:29;92864.44;;;14.74;58.76
30935;BME280;51033;42.648;23.292;2022-09-28T00:16:05;92884.94;;;14.89;59.14
30935;BME280;51033;42.648;23.292;2022-09-28T00:18:31;92878.34;;;14.83;58.66
30935;BME280;51033;42.648;23.292;2022-09-28T00:21:10;92877.63;;;14.86;59.07
30935;BME280;51033;42.648;23.292;2022-09-28T00:23:39;92882.69;;;14.91;59.20
30935;BME280;51033;42.648;23.292;2022-09-28T00:26:27;92881.53;;;14.92;58.94
30935;BME280;51033;42.648;23.292;2022-09-28T00:28:54;92860.03;;;14.85;58.85
30935;BME280;51033;42.648;23.292;2022-09-28T00:31:20;92852.00;;;14.58;58.16
30935;BME280;51033;42.648;23.292;2022-09-28T00:33:51;92848.06;;;14.52;58.04
30935;BME280;51033;42.648;23.292;2022-09-28T00:36:17;92875.91;;;14.71;58.70
30935;BME280;51033;42.648;23.292;2022-09-28T00:38:43;92871.25;;;14.68;58.59
30935;BME280;51033;42.648;23.292;2022-09-28T00:41:11;92844.22;;;14.50;58.44
30935;BME280;51033;42.648;23.292;2022-09-28T00:43:37;92874.34;;;14.70;58.54
30935;BME280;51033;42.648;23.292;2022-09-28T00:46:05;92879.72;;;14.73;58.86
30935;BME280;51033;42.648;23.292;2022-09-28T00:48:36;92878.25;;;14.76;58.74
30935;BME280;51033;42.648;23.292;2022-09-28T00:51:08;92883.97;;;14.74;58.63
30935;BME280;51033;42.648;23.292;2022-09-28T00:53:36;92880.50;;;14.74;58.32
30935;BME280;51033;42.648;23.292;2022-09-28T00:56:06;92872.84;;;14.72;58.33
30935;BME280;51033;42.648;23.292;2022-09-28T00:58:38;92878.19;;;14.72;57.98
30935;BME280;51033;42.648;23.292;2022-09-28T01:01:05;92870.69;;;14.55;58.26
30935;BME280;51033;42.648;23.292;2022-09-28T01:03:31;92883.44;;;14.65;58.63
30935;BME280;51033;42.648;23.292;2022-09-28T01:05:58;92882.69;;;14.65;58.88
30935;BME280;51033;42.648;23.292;2022-09-28T01:08:27;92884.28;;;14.69;58.92
30935;BME280;51033;42.648;23.292;2022-09-28T01:10:53;92864.25;;;14.59;58.73
30935;BME280;51033;42.648;23.292;2022-09-28T01:13:19;92883.91;;;14.71;59.00
30935;BME280;51033;42.648;23.292;2022-09-28T01:22:06;92880.31;;;14.59;58.68
30935;BME280;51033;42.648;23.292;2022-09-28T01:24:48;92857.47;;;14.43;59.14
30935;BME280;51033;42.648;23.292;2022-09-28T01:27:41;92865.63;;;14.50;58.96
30935;BME280;51033;42.648;23.292;2022-09-28T01:30:16;92874.38;;;14.47;58.88
30935;BME280;51033;42.648;23.292;2022-09-28T01:33:10;92879.34;;;14.48;59.04
30935;BME280;51033;42.648;23.292;2022-09-28T01:35:53;92877.09;;;14.50;59.35
30935;BME280;51033;42.648;23.292;2022-09-28T01:38:24;92859.16;;;14.28;58.74
30935;BME280;51033;42.648;23.292;2022-09-28T01:40:51;92878.13;;;14.19;59.31
30935;BME280;51033;42.648;23.292;2022-09-28T01:43:25;92879.84;;;14.31;59.52
30935;BME280;51033;42.648;23.292;2022-09-28T01:45:59;92861.22;;;14.12;59.26
30935;BME280;51033;42.648;23.292;2022-09-28T01:48:35;92884.31;;;14.24;59.48
30935;BME280;51033;42.648;23.292;2022-09-28T01:51:04;92890.47;;;14.28;59.36
30935;BME280;51033;42.648;23.292;2022-09-28T01:53:38;92887.44;;;14.29;59.62
30935;BME280;51033;42.648;23.292;2022-09-28T01:56:12;92882.22;;;14.36;59.46
30935;BME280;51033;42.648;23.292;2022-09-28T02:01:14;92883.13;;;14.21;59.39
30935;BME280;51033;42.648;23.292;2022-09-28T02:03:56;92891.19;;;14.25;59.34
30935;BME280;51033;42.648;23.292;2022-09-28T02:06:32;92896.50;;;14.21;59.43
30935;BME280;51033;42.648;23.292;2022-09-28T02:09:10;92897.31;;;14.25;59.41
30935;BME280;51033;42.648;23.292;2022-09-28T02:11:38;92898.91;;;14.30;59.26
30935;BME280;51033;42.648;23.292;2022-09-28T02:14:09;92885.84;;;14.25;59.03
30935;BME280;51033;42.648;23.292;2022-09-28T02:16:42;92887.88;;;14.31;59.28
30935;BME280;51033;42.648;23.292;2022-09-28T02:19:12;92893.56;;;14.30;59.34
30935;BME280;51033;42.648;23.292;2022-09-28T02:24:17;92885.59;;;14.33;59.36
30935;BME280;51033;42.648;23.292;2022-09-28T02:26:44;92861.22;;;14.12;59.17
30935;BME280;51033;42.648;23.292;2022-09-28T02:29:12;92867.38;;;14.16;59.05
30935;BME280;51033;42.648;23.292;2022-09-28T02:31:38;92895.41;;;14.26;58.86
30935;BME280;51033;42.648;23.292;2022-09-28T02:34:04;92881.22;;;14.22;58.63
30935;BME280;51033;42.648;23.292;2022-09-28T02:36:29;92898.16;;;14.29;58.76
30935;BME280;51033;42.648;23.292;2022-09-28T02:38:56;92877.06;;;14.24;58.95
30935;BME280;51033;42.648;23.292;2022-09-28T02:46:44;92869.63;;;14.14;58.65
30935;BME280;51033;42.648;23.292;2022-09-28T02:52:33;92896.97;;;14.27;58.69
30935;BME280;51033;42.648;23.292;2022-09-28T02:58:20;92899.56;;;14.23;58.75
30935;BME280;51033;42.648;23.292;2022-09-28T03:00:25;92907.88;;;14.18;58.51
30935;BME280;51033;42.648;23.292;2022-09-28T03:06:02;92911.00;;;14.20;58.88
30935;BME280;51033;42.648;23.292;2022-09-28T03:11:21;92896.13;;;14.00;59.04
30935;BME280;51033;42.648;23.292;2022-09-28T03:13:48;92902.59;;;13.99;59.42
30935;BME280;51033;42.648;23.292;2022-09-28T03:16:16;92923.47;;;14.12;59.37
30935;BME280;51033;42.648;23.292;2022-09-28T03:18:42;92907.25;;;14.02;59.75
30935;BME280;51033;42.648;23.292;2022-09-28T03:21:10;92900.69;;;13.99;59.86
30935;BME280;51033;42.648;23.292;2022-09-28T03:23:35;92928.44;;;14.14;59.70
30935;BME280;51033;42.648;23.292;2022-09-28T03:26:01;92918.13;;;14.12;59.66
30935;BME280;51033;42.648;23.292;2022-09-28T03:28:26;92923.81;;;14.11;60.27
30935;BME280;51033;42.648;23.292;2022-09-28T03:30:52;92937.63;;;14.13;60.09
30935;BME280;51033;42.648;23.292;2022-09-28T03:33:18;92897.59;;;13.74;61.05
30935;BME280;51033;42.648;23.292;2022-09-28T03:35:48;92913.59;;;13.94;61.26
30935;BME280;51033;42.648;23.292;2022-09-28T03:38:15;92941.41;;;14.12;60.99
30935;BME280;51033;42.648;23.292;2022-09-28T03:40:41;92905.56;;;13.94;61.24
30935;BME280;51033;42.648;23.292;2022-09-28T03:43:06;92936.56;;;14.17;61.44
30935;BME280;51033;42.648;23.292;2022-09-28T03:45:32;92875.91;;;13.80;61.88
30935;BME280;51033;42.648;23.292;2022-09-28T03:47:57;92893.44;;;14.00;61.68
30935;BME280;51033;42.648;23.292;2022-09-28T03:50:22;92880.81;;;13.97;61.74
30935;BME280;51033;42.648;23.292;2022-09-28T03:52:48;92919.34;;;14.18;61.77
30935;BME280;51033;42.648;23.292;2022-09-28T03:55:13;92924.00;;;14.22;61.49
30935;BME280;51033;42.648;23.292;2022-09-28T03:57:38;92911.72;;;14.17;61.82
30935;BME280;51033;42.648;23.292;2022-09-28T04:00:04;92919.00;;;14.20;62.05
30935;BME280;51033;42.648;23.292;2022-09-28T04:02:30;92931.91;;;14.37;61.88
30935;BME280;51033;42.648;23.292;2022-09-28T04:04:55;92912.25;;;14.26;61.76
30935;BME280;51033;42.648;23.292;2022-09-28T04:07:21;92938.09;;;14.41;61.92
30935;BME280;51033;42.648;23.292;2022-09-28T04:09:47;92920.75;;;14.32;62.10
30935;BME280;51033;42.648;23.292;2022-09-28T04:12:12;92907.66;;;14.27;61.86
30935;BME280;51033;42.648;23.292;2022-09-28T04:14:37;92912.63;;;14.28;61.71
30935;BME280;51033;42.648;23.292;2022-09-28T04:17:02;92902.66;;;14.25;61.75
30935;BME280;51033;42.648;23.292;2022-09-28T04:19:28;92923.41;;;14.32;62.02
30935;BME280;51033;42.648;23.292;2022-09-28T04:21:54;92904.88;;;14.19;62.03
30935;BME280;51033;42.648;23.292;2022-09-28T04:24:19;92913.31;;;14.22;62.09
30935;BME280;51033;42.648;23.292;2022-09-28T04:26:45;92937.38;;;14.44;62.12
30935;BME280;51033;42.648;23.292;2022-09-28T04:29:11;92948.50;;;14.46;62.42
30935;BME280;51033;42.648;23.292;2022-09-28T04:31:50;92924.88;;;14.29;62.21
30935;BME280;51033;42.648;23.292;2022-09-28T04:34:18;92941.16;;;14.43;62.15
30935;BME280;51033;42.648;23.292;2022-09-28T04:36:44;92941.16;;;14.43;62.30
30935;BME280;51033;42.648;23.292;2022-09-28T04:39:11;92913.06;;;14.30;62.26
30935;BME280;51033;42.648;23.292;2022-09-28T04:41:36;92910.56;;;14.41;62.54
30935;BME280;51033;42.648;23.292;2022-09-28T04:44:02;92917.53;;;14.45;62.76
30935;BME280;51033;42.648;23.292;2022-09-28T04:46:27;92935.69;;;14.55;63.06
30935;BME280;51033;42.648;23.292;2022-09-28T04:48:53;92925.25;;;14.50;62.75
30935;BME280;51033;42.648;23.292;2022-09-28T04:51:18;92904.53;;;14.47;62.78
30935;BME280;51033;42.648;23.292;2022-09-28T04:53:44;92901.03;;;14.43;62.92
30935;BME280;51033;42.648;23.292;2022-09-28T04:56:13;92919.19;;;14.53;62.75
30935;BME280;51033;42.648;23.292;2022-09-28T04:58:39;92898.78;;;14.45;62.72
30935;BME280;51033;42.648;23.292;2022-09-28T05:01:11;92937.75;;;14.66;62.73
30935;BME280;51033;42.648;23.292;2022-09-28T05:03:37;92889.59;;;14.20;63.46
30935;BME280;51033;42.648;23.292;2022-09-28T05:06:03;92911.34;;;14.41;63.46
30935;BME280;51033;42.648;23.292;2022-09-28T05:08:29;92913.28;;;14.44;63.57
30935;BME280;51033;42.648;23.292;2022-09-28T05:10:59;92946.16;;;14.68;63.19
30935;BME280;51033;42.648;23.292;2022-09-28T05:13:25;92939.69;;;14.69;62.77
30935;BME280;51033;42.648;23.292;2022-09-28T05:15:53;92940.22;;;14.78;62.78
30935;BME280;51033;42.648;23.292;2022-09-28T05:18:18;92915.97;;;14.67;62.71
30935;BME280;51033;42.648;23.292;2022-09-28T05:20:44;92940.31;;;14.85;62.98
30935;BME280;51033;42.648;23.292;2022-09-28T05:23:10;92922.22;;;14.75;62.68
30935;BME280;51033;42.648;23.292;2022-09-28T05:25:37;92951.13;;;14.92;62.56
30935;BME280;51033;42.648;23.292;2022-09-28T05:28:03;92887.88;;;14.54;63.06
30935;BME280;51033;42.648;23.292;2022-09-28T05:30:28;92932.03;;;14.93;63.57
30935;BME280;51033;42.648;23.292;2022-09-28T05:32:54;92915.13;;;14.86;63.51
30935;BME280;51033;42.648;23.292;2022-09-28T05:35:19;92936.63;;;14.93;63.42
30935;BME280;51033;42.648;23.292;2022-09-28T05:37:45;92928.88;;;14.88;63.32
30935;BME280;51033;42.648;23.292;2022-09-28T05:40:10;92922.00;;;14.87;63.96
30935;BME280;51033;42.648;23.292;2022-09-28T05:42:36;92908.41;;;14.73;64.07
30935;BME280;51033;42.648;23.292;2022-09-28T05:45:05;92935.94;;;14.99;63.45
30935;BME280;51033;42.648;23.292;2022-09-28T05:47:35;92962.94;;;15.14;63.30
30935;BME280;51033;42.648;23.292;2022-09-28T05:50:01;92954.97;;;15.21;63.48
30935;BME280;51033;42.648;23.292;2022-09-28T05:52:26;92929.59;;;15.11;63.30
30935;BME280;51033;42.648;23.292;2022-09-28T05:54:52;92942.44;;;15.25;62.71
30935;BME280;51033;42.648;23.292;2022-09-28T05:57:17;92952.44;;;15.31;62.71
30935;BME280;51033;42.648;23.292;2022-09-28T05:59:42;92960.97;;;15.40;63.00
30935;BME280;51033;42.648;23.292;2022-09-28T06:02:09;92910.63;;;15.23;63.39
30935;BME280;51033;42.648;23.292;2022-09-28T06:04:34;92909.97;;;15.30;63.47
30935;BME280;51033;42.648;23.292;2022-09-28T06:07:00;92957.78;;;15.58;64.02
30935;BME280;51033;42.648;23.292;2022-09-28T06:09:25;92924.75;;;15.50;62.69
30935;BME280;51033;42.648;23.292;2022-09-28T06:11:51;92943.78;;;15.71;62.76
30935;BME280;51033;42.648;23.292;2022-09-28T06:14:17;92945.41;;;15.79;64.36
30935;BME280;51033;42.648;23.292;2022-09-28T06:16:42;92951.63;;;15.87;63.86
30935;BME280;51033;42.648;23.292;2022-09-28T06:19:09;92959.81;;;16.01;64.27
30935;BME280;51033;42.648;23.292;2022-09-28T06:21:34;92961.06;;;16.11;63.92
30935;BME280;51033;42.648;23.292;2022-09-28T06:24:01;92950.69;;;16.09;62.63
30935;BME280;51033;42.648;23.292;2022-09-28T06:26:26;92968.00;;;16.15;62.50
30935;BME280;51033;42.648;23.292;2022-09-28T06:28:52;92948.28;;;15.97;62.80
30935;BME280;51033;42.648;23.292;2022-09-28T06:31:17;92977.59;;;16.16;62.78
30935;BME280;51033;42.648;23.292;2022-09-28T06:33:48;92973.41;;;16.19;63.04
30935;BME280;51033;42.648;23.292;2022-09-28T06:36:14;92955.69;;;16.07;62.70
30935;BME280;51033;42.648;23.292;2022-09-28T06:38:39;92978.78;;;16.19;63.00
30935;BME280;51033;42.648;23.292;2022-09-28T06:41:05;92975.38;;;16.22;63.52
30935;BME280;51033;42.648;23.292;2022-09-28T06:43:30;92953.78;;;16.11;63.05
30935;BME280;51033;42.648;23.292;2022-09-28T06:45:58;92985.06;;;16.33;63.29
30935;BME280;51033;42.648;23.292;2022-09-28T06:48:23;92987.75;;;16.33;62.44
30935;BME280;51033;42.648;23.292;2022-09-28T06:50:49;92975.81;;;16.27;62.69
30935;BME280;51033;42.648;23.292;2022-09-28T06:53:14;92986.16;;;16.29;63.07
30935;BME280;51033;42.648;23.292;2022-09-28T06:55:41;92982.69;;;16.28;61.65
30935;BME280;51033;42.648;23.292;2022-09-28T06:58:10;92961.97;;;16.25;61.29
30935;BME280;51033;42.648;23.292;2022-09-28T07:00:37;92978.59;;;16.35;61.94
30935;BME280;51033;42.648;23.292;2022-09-28T07:03:05;92935.34;;;16.06;61.00
30935;BME280;51033;42.648;23.292;2022-09-28T07:05:33;92964.69;;;16.29;61.63
30935;BME280;51033;42.648;23.292;2022-09-28T07:07:59;92989.34;;;16.38;61.82
30935;BME280;51033;42.648;23.292;2022-09-28T07:10:27;92953.44;;;16.13;60.82
30935;BME280;51033;42.648;23.292;2022-09-28T07:12:54;92960.44;;;16.24;60.88
30935;BME280;51033;42.648;23.292;2022-09-28T07:15:20;92953.84;;;16.18;61.21
30935;BME280;51033;42.648;23.292;2022-09-28T07:17:46;92938.88;;;16.14;60.66
30935;BME280;51033;42.648;23.292;2022-09-28T07:20:12;92975.13;;;16.34;61.29
30935;BME280;51033;42.648;23.292;2022-09-28T07:22:38;92976.69;;;16.39;61.99
30935;BME280;51033;42.648;23.292;2022-09-28T07:25:08;92991.00;;;16.50;62.22
30935;BME280;51033;42.648;23.292;2022-09-28T07:27:34;92974.97;;;16.57;61.83
30935;BME280;51033;42.648;23.292;2022-09-28T07:30:03;92984.97;;;16.63;61.55
30935;BME280;51033;42.648;23.292;2022-09-28T07:32:29;92981.59;;;16.70;60.32
30935;BME280;51033;42.648;23.292;2022-09-28T07:34:56;92992.66;;;16.65;60.32
30935;BME280;51033;42.648;23.292;2022-09-28T07:37:21;93009.44;;;16.55;61.57
30935;BME280;51033;42.648;23.292;2022-09-28T07:39:48;93002.19;;;16.59;61.68
30935;BME280;51033;42.648;23.292;2022-09-28T07:42:32;93007.19;;;16.57;61.64
30935;BME280;51033;42.648;23.292;2022-09-28T07:44:58;92995.94;;;16.48;62.17
30935;BME280;51033;42.648;23.292;2022-09-28T07:47:24;93000.72;;;16.65;61.82
30935;BME280;51033;42.648;23.292;2022-09-28T07:49:53;92988.28;;;16.46;62.03
30935;BME280;51033;42.648;23.292;2022-09-28T07:52:20;92985.69;;;16.57;61.78
30935;BME280;51033;42.648;23.292;2022-09-28T07:54:53;93004.97;;;16.69;60.64
30935;BME280;51033;42.648;23.292;2022-09-28T07:57:20;93014.59;;;16.74;60.22
30935;BME280;51033;42.648;23.292;2022-09-28T07:59:47;93003.84;;;16.70;59.68
30935;BME280;51033;42.648;23.292;2022-09-28T08:02:14;92970.72;;;16.56;58.82
30935;BME280;51033;42.648;23.292;2022-09-28T08:04:39;93010.03;;;16.78;60.13
30935;BME280;51033;42.648;23.292;2022-09-28T08:07:09;93013.09;;;16.77;60.18
30935;BME280;51033;42.648;23.292;2022-09-28T08:09:35;92997.28;;;16.68;59.21
30935;BME280;51033;42.648;23.292;2022-09-28T08:12:01;93000.72;;;16.65;58.46
30935;BME280;51033;42.648;23.292;2022-09-28T08:14:28;93016.13;;;16.71;59.68
30935;BME280;51033;42.648;23.292;2022-09-28T08:16:58;92993.81;;;16.64;60.13
30935;BME280;51033;42.648;23.292;2022-09-28T08:19:23;93005.38;;;16.71;60.02
30935;BME280;51033;42.648;23.292;2022-09-28T08:21:49;92961.81;;;16.45;59.09
30935;BME280;51033;42.648;23.292;2022-09-28T08:24:15;93016.63;;;16.84;58.78
30935;BME280;51033;42.648;23.292;2022-09-28T08:26:42;93022.41;;;16.86;58.18
30935;BME280;51033;42.648;23.292;2022-09-28T08:29:08;93023.91;;;16.87;57.36
30935;BME280;51033;42.648;23.292;2022-09-28T08:31:34;92994.69;;;16.75;57.57
30935;BME280;51033;42.648;23.292;2022-09-28T08:34:00;93011.22;;;16.81;57.83
30935;BME280;51033;42.648;23.292;2022-09-28T08:36:25;92964.16;;;16.50;58.49
30935;BME280;51033;42.648;23.292;2022-09-28T08:38:52;93009.34;;;16.85;59.25
30935;BME280;51033;42.648;23.292;2022-09-28T08:41:25;93006.56;;;16.77;58.93
30935;BME280;51033;42.648;23.292;2022-09-28T08:44:17;93008.56;;;16.84;59.26
30935;BME280;51033;42.648;23.292;2022-09-28T08:46:57;92977.31;;;16.62;60.42
30935;BME280;51033;42.648;23.292;2022-09-28T08:49:43;92971.88;;;16.58;60.45
30935;BME280;51033;42.648;23.292;2022-09-28T08:52:17;92998.50;;;16.74;59.83
30935;BME280;51033;42.648;23.292;2022-09-28T08:54:54;92979.31;;;16.72;59.61
30935;BME280;51033;42.648;23.292;2022-09-28T08:57:29;93003.25;;;16.91;59.88
30935;BME280;51033;42.648;23.292;2022-09-28T08:59:58;93001.63;;;16.83;59.79
30935;BME280;51033;42.648;23.292;2022-09-28T09:02:29;92973.19;;;16.71;59.48
30935;BME280;51033;42.648;23.292;2022-09-28T09:04:58;92994.84;;;16.96;60.01
30935;BME280;51033;42.648;23.292;2022-09-28T09:07:36;92996.44;;;17.01;59.62
30935;BME280;51033;42.648;23.292;2022-09-28T09:20:58;92988.59;;;17.29;58.39
30935;BME280;51033;42.648;23.292;2022-09-28T09:23:36;92976.72;;;17.34;57.86
30935;BME280;51033;42.648;23.292;2022-09-28T09:29:09;92985.19;;;17.39;56.65
30935;BME280;51033;42.648;23.292;2022-09-28T09:32:14;92982.09;;;17.41;55.68
30935;BME280;51033;42.648;23.292;2022-09-28T09:35:18;92982.56;;;17.50;55.81
30935;BME280;51033;42.648;23.292;2022-09-28T09:38:03;92980.66;;;17.57;55.40
30935;BME280;51033;42.648;23.292;2022-09-28T09:46:28;92971.53;;;17.73;56.04
30935;BME280;51033;42.648;23.292;2022-09-28T09:49:00;92978.09;;;17.82;56.08
30935;BME280;51033;42.648;23.292;2022-09-28T09:57:02;92941.59;;;17.74;54.89
30935;BME280;51033;42.648;23.292;2022-09-28T09:59:36;92975.50;;;18.00;53.64
30935;BME280;51033;42.648;23.292;2022-09-28T10:02:25;92968.59;;;18.06;54.23
30935;BME280;51033;42.648;23.292;2022-09-28T10:04:59;92977.84;;;18.16;53.79
30935;BME280;51033;42.648;23.292;2022-09-28T10:07:36;92947.06;;;18.02;53.24
30935;BME280;51033;42.648;23.292;2022-09-28T10:10:11;92961.75;;;18.30;53.70
30935;BME280;51033;42.648;23.292;2022-09-28T10:12:37;92959.44;;;18.28;53.40
30935;BME280;51033;42.648;23.292;2022-09-28T10:15:05;92967.91;;;18.41;53.69
30935;BME280;51033;42.648;23.292;2022-09-28T10:17:33;92947.91;;;18.38;52.99
30935;BME280;51033;42.648;23.292;2022-09-28T10:19:58;92960.63;;;18.52;51.65
30935;BME280;51033;42.648;23.292;2022-09-28T10:22:25;92947.53;;;18.54;51.12
30935;BME280;51033;42.648;23.292;2022-09-28T10:24:54;92946.00;;;18.64;50.20
30935;BME280;51033;42.648;23.292;2022-09-28T10:27:33;92903.72;;;18.43;51.04
30935;BME280;51033;42.648;23.292;2022-09-28T10:30:18;92925.22;;;18.68;50.95
30935;BME280;51033;42.648;23.292;2022-09-28T10:32:46;92917.16;;;18.64;50.59
30935;BME280;51033;42.648;23.292;2022-09-28T10:35:20;92932.59;;;18.85;50.45
30935;BME280;51033;42.648;23.292;2022-09-28T10:37:59;92931.03;;;18.87;50.19
30935;BME280;51033;42.648;23.292;2022-09-28T10:40:44;92931.81;;;18.92;49.49
30935;BME280;51033;42.648;23.292;2022-09-28T10:43:25;92923.72;;;18.88;49.45
30935;BME280;51033;42.648;23.292;2022-09-28T10:48:36;92900.25;;;18.88;49.42
30935;BME280;51033;42.648;23.292;2022-09-28T10:51:10;92934.06;;;19.18;49.23
30935;BME280;51033;42.648;23.292;2022-09-28T10:53:38;92926.00;;;19.25;48.34
30935;BME280;51033;42.648;23.292;2022-09-28T10:56:18;92925.97;;;19.28;47.35
30935;BME280;51033;42.648;23.292;2022-09-28T10:58:44;92895.59;;;19.21;47.20
30935;BME280;51033;42.648;23.292;2022-09-28T11:01:11;92884.00;;;19.24;46.46
30935;BME280;51033;42.648;23.292;2022-09-28T11:06:14;92915.56;;;19.48;48.58
30935;BME280;51033;42.648;23.292;2022-09-28T11:08:41;92914.00;;;19.54;46.27
30935;BME280;51033;42.648;23.292;2022-09-28T11:11:10;92890.56;;;19.23;46.66
30935;BME280;51033;42.648;23.292;2022-09-28T11:14:18;92870.53;;;19.24;47.87
30935;BME280;51033;42.648;23.292;2022-09-28T11:16:33;92902.03;;;19.59;47.57
30935;BME280;51033;42.648;23.292;2022-09-28T11:21:43;92885.44;;;19.67;44.88
30935;BME280;51033;42.648;23.292;2022-09-28T11:26:43;92886.09;;;19.86;43.79
30935;BME280;51033;42.648;23.292;2022-09-28T11:29:19;92876.06;;;19.90;44.73
30935;BME280;51033;42.648;23.292;2022-09-28T11:31:44;92872.91;;;20.02;44.53
30935;BME280;51033;42.648;23.292;2022-09-28T11:34:46;92839.88;;;19.84;43.40
30935;BME280;51033;42.648;23.292;2022-09-28T11:43:17;92873.22;;;20.14;43.46
30935;BME280;51033;42.648;23.292;2022-09-28T11:46:18;92860.91;;;20.13;43.17
30935;BME280;51033;42.648;23.292;2022-09-28T11:49:04;92880.94;;;20.20;41.90
30935;BME280;51033;42.648;23.292;2022-09-28T11:51:34;92885.13;;;20.28;42.44
30935;BME280;51033;42.648;23.292;2022-09-28T11:54:13;92864.38;;;20.17;40.77
30935;BME280;51033;42.648;23.292;2022-09-28T11:56:48;92861.59;;;20.28;45.47
30935;BME280;51033;42.648;23.292;2022-09-28T11:59:33;92855.72;;;20.40;42.81
30935;BME280;51033;42.648;23.292;2022-09-28T12:02:21;92854.81;;;20.57;41.16
30935;BME280;51033;42.648;23.292;2022-09-28T12:04:55;92830.19;;;20.48;41.31
30935;BME280;51033;42.648;23.292;2022-09-28T12:07:47;92847.75;;;20.71;42.30
30935;BME280;51033;42.648;23.292;2022-09-28T12:13:04;92857.75;;;20.77;38.75
30935;BME280;51033;42.648;23.292;2022-09-28T12:15:57;92857.66;;;20.84;39.93
30935;BME280;51033;42.648;23.292;2022-09-28T12:18:37;92856.09;;;20.90;41.51
30935;BME280;51033;42.648;23.292;2022-09-28T12:23:50;92863.66;;;21.06;39.49
30935;BME280;51033;42.648;23.292;2022-09-28T12:26:27;92855.56;;;21.06;39.88
30935;BME280;51033;42.648;23.292;2022-09-28T12:29:00;92819.38;;;20.93;39.48
30935;BME280;51033;42.648;23.292;2022-09-28T12:31:32;92855.78;;;21.19;38.16
30935;BME280;51033;42.648;23.292;2022-09-28T12:34:00;92865.00;;;21.25;37.84
30935;BME280;51033;42.648;23.292;2022-09-28T12:39:38;92855.69;;;21.29;37.70
30935;BME280;51033;42.648;23.292;2022-09-28T12:42:30;92854.88;;;21.32;38.11
30935;BME280;51033;42.648;23.292;2022-09-28T12:50:17;92865.50;;;21.50;37.74
30935;BME280;51033;42.648;23.292;2022-09-28T12:53:16;92861.63;;;21.55;37.38
30935;BME280;51033;42.648;23.292;2022-09-28T13:07:34;92862.38;;;21.18;38.36
30935;BME280;51033;42.648;23.292;2022-09-28T13:10:25;92841.63;;;20.67;38.63
30935;BME280;51033;42.648;23.292;2022-09-28T13:13:34;92864.59;;;20.89;39.27
30935;BME280;51033;42.648;23.292;2022-09-28T13:19:10;92855.47;;;20.72;39.15
30935;BME280;51033;42.648;23.292;2022-09-28T13:22:12;92858.59;;;20.64;40.93
30935;BME280;51033;42.648;23.292;2022-09-28T13:24:40;92804.91;;;20.25;41.54
30935;BME280;51033;42.648;23.292;2022-09-28T13:27:20;92852.50;;;20.56;40.82
30935;BME280;51033;42.648;23.292;2022-09-28T13:29:48;92829.09;;;20.42;40.56
30935;BME280;51033;42.648;23.292;2022-09-28T13:32:16;92833.69;;;20.45;40.48
30935;BME280;51033;42.648;23.292;2022-09-28T13:34:46;92849.50;;;20.47;39.73
30935;BME280;51033;42.648;23.292;2022-09-28T13:48:00;92834.31;;;20.08;39.83
30935;BME280;51033;42.648;23.292;2022-09-28T13:53:06;92848.25;;;20.00;40.48
30935;BME280;51033;42.648;23.292;2022-09-28T13:58:24;92826.94;;;19.43;39.79
30935;BME280;51033;42.648;23.292;2022-09-28T14:01:11;92863.13;;;19.56;40.41
30935;BME280;51033;42.648;23.292;2022-09-28T14:06:35;92850.09;;;19.33;40.71
30935;BME280;51033;42.648;23.292;2022-09-28T14:16:41;92842.88;;;19.06;41.10
30935;BME280;51033;42.648;23.292;2022-09-28T14:19:11;92852.84;;;19.19;40.84
30935;BME280;51033;42.648;23.292;2022-09-28T14:32:35;92852.47;;;19.21;41.33
30935;BME280;51033;42.648;23.292;2022-09-28T14:35:05;92829.81;;;19.01;41.01
30935;BME280;51033;42.648;23.292;2022-09-28T14:37:38;92859.00;;;19.20;41.36
30935;BME280;51033;42.648;23.292;2022-09-28T14:40:43;92823.25;;;19.02;40.62
30935;BME280;51033;42.648;23.292;2022-09-28T14:48:51;92849.41;;;19.08;40.85
30935;BME280;51033;42.648;23.292;2022-09-28T14:53:49;92823.66;;;18.82;40.98
30935;BME280;51033;42.648;23.292;2022-09-28T14:56:16;92834.47;;;18.86;40.79
30935;BME280;51033;42.648;23.292;2022-09-28T14:58:42;92856.34;;;18.99;40.59
30935;BME280;51033;42.648;23.292;2022-09-28T15:01:16;92863.25;;;19.21;41.15
30935;BME280;51033;42.648;23.292;2022-09-28T15:03:46;92844.03;;;18.98;39.99
30935;BME280;51033;42.648;23.292;2022-09-28T15:06:15;92846.38;;;18.96;40.19
30935;BME280;51033;42.648;23.292;2022-09-28T15:08:42;92865.56;;;19.15;40.57
30935;BME280;51033;42.648;23.292;2022-09-28T15:11:12;92869.75;;;19.34;40.52
30935;BME280;51033;42.648;23.292;2022-09-28T15:13:39;92855.84;;;19.39;40.96
30935;BME280;51033;42.648;23.292;2022-09-28T15:16:07;92857.72;;;19.60;41.01
30935;BME280;51033;42.648;23.292;2022-09-28T15:21:19;92851.50;;;19.73;43.06
30935;BME280;51033;42.648;23.292;2022-09-28T15:23:45;92866.81;;;19.94;42.82
30935;BME280;51033;42.648;23.292;2022-09-28T15:26:25;92874.50;;;19.99;42.50
30935;BME280;51033;42.648;23.292;2022-09-28T15:28:53;92856.03;;;19.87;42.56
30935;BME280;51033;42.648;23.292;2022-09-28T15:31:21;92856.06;;;19.80;43.93
30935;BME280;51033;42.648;23.292;2022-09-28T15:33:48;92849.19;;;19.72;43.30
30935;BME280;51033;42.648;23.292;2022-09-28T15:36:43;92874.91;;;19.91;43.81